createdAt,value
2023-02-18T00:01:02.317Z,11.30
2023-02-18T00:03:30.004Z,11.57
2023-02-18T00:05:57.030Z,11.50
2023-02-18T00:08:23.593Z,11.97
2023-02-18T00:10:50.242Z,12.00
2023-02-18T00:13:16.800Z,12.43
2023-02-18T00:15:43.337Z,12.57
2023-02-18T00:18:10.014Z,12.07
2023-02-18T00:20:39.565Z,12.60
2023-02-18T00:23:06.209Z,12.33
2023-02-18T00:25:32.760Z,12.43
2023-02-18T00:27:59.293Z,12.67
2023-02-18T00:30:26.209Z,12.50
2023-02-18T00:32:52.794Z,13.10
2023-02-18T00:35:19.345Z,13.73
2023-02-18T00:37:45.923Z,13.00
2023-02-18T00:40:12.823Z,12.63
2023-02-18T00:42:39.340Z,13.10
2023-02-18T00:45:06.167Z,12.90
2023-02-18T00:47:32.706Z,14.00
2023-02-18T00:49:59.190Z,14.20
2023-02-18T00:52:25.730Z,12.90
2023-02-18T00:54:52.299Z,13.10
2023-02-18T00:57:18.781Z,13.20
2023-02-18T00:59:45.303Z,13.93
2023-02-18T01:02:18.868Z,13.47
2023-02-18T01:04:45.434Z,14.00
2023-02-18T01:07:14.557Z,13.67
2023-02-18T01:09:43.537Z,13.67
2023-02-18T01:12:10.171Z,13.30
2023-02-18T01:14:36.693Z,13.17
2023-02-18T01:17:03.236Z,13.00
2023-02-18T01:19:29.830Z,14.00
2023-02-18T01:21:56.341Z,13.43
2023-02-18T01:24:22.899Z,13.30
2023-02-18T01:26:49.398Z,14.17
2023-02-18T01:29:16.001Z,13.07
2023-02-18T01:31:42.744Z,13.70
2023-02-18T01:34:09.434Z,12.47
2023-02-18T01:36:35.981Z,13.13
2023-02-18T01:39:02.765Z,12.53
2023-02-18T01:41:29.259Z,12.30
2023-02-18T01:44:15.539Z,12.50
2023-02-18T01:46:42.875Z,11.27
2023-02-18T01:49:12.389Z,10.20
2023-02-18T01:51:47.184Z,11.03
2023-02-18T01:54:19.521Z,11.50
2023-02-18T01:56:54.578Z,11.37
2023-02-18T01:59:25.800Z,10.43
2023-02-18T02:01:53.555Z,9.73
2023-02-18T02:04:22.861Z,9.43
2023-02-18T02:06:49.514Z,9.47
2023-02-18T02:09:18.992Z,10.03
2023-02-18T02:12:01.942Z,9.20
2023-02-18T02:14:46.580Z,9.00
2023-02-18T02:17:41.588Z,8.60
2023-02-18T02:20:30.308Z,9.07
2023-02-18T02:23:32.705Z,8.53
2023-02-18T02:26:27.209Z,8.33
2023-02-18T02:29:10.906Z,9.13
2023-02-18T02:31:49.610Z,8.17
2023-02-18T02:34:21.446Z,7.90
2023-02-18T02:37:01.144Z,9.57
2023-02-18T02:39:38.694Z,8.53
2023-02-18T02:42:26.626Z,9.63
2023-02-18T02:45:05.303Z,8.80
2023-02-18T02:47:44.637Z,9.30
2023-02-18T02:50:20.247Z,9.17
2023-02-18T02:53:02.535Z,9.57
2023-02-18T02:55:29.123Z,9.00
2023-02-18T02:57:57.038Z,9.43
2023-02-18T03:00:39.054Z,9.33
2023-02-18T03:03:22.693Z,9.10
2023-02-18T03:06:23.951Z,9.10
2023-02-18T03:09:25.599Z,9.20
2023-02-18T03:12:24.970Z,9.20
2023-02-18T03:15:06.659Z,10.30
2023-02-18T03:17:43.225Z,10.00
2023-02-18T03:20:35.761Z,9.37
2023-02-18T03:23:11.374Z,10.33
2023-02-18T03:25:40.340Z,10.20
2023-02-18T03:28:18.615Z,11.07
2023-02-18T03:30:52.995Z,10.53
2023-02-18T03:33:28.582Z,10.80
2023-02-18T03:35:57.038Z,10.53
2023-02-18T03:38:36.000Z,11.00
2023-02-18T03:41:02.721Z,10.37
2023-02-18T03:43:29.662Z,12.30
2023-02-18T03:45:56.596Z,11.60
2023-02-18T03:48:23.254Z,12.40
2023-02-18T03:50:49.810Z,12.23
2023-02-18T03:53:16.406Z,12.37
2023-02-18T03:55:44.724Z,12.47
2023-02-18T03:58:11.335Z,12.37
2023-02-18T04:00:37.996Z,12.07
2023-02-18T04:03:04.650Z,11.40
2023-02-18T04:05:31.228Z,11.73
2023-02-18T04:07:57.839Z,11.87
2023-02-18T04:10:24.543Z,11.47
2023-02-18T04:12:51.166Z,11.07
2023-02-18T04:15:17.782Z,12.00
2023-02-18T04:17:44.405Z,10.83
2023-02-18T04:20:11.478Z,10.67
2023-02-18T04:22:38.161Z,10.33
2023-02-18T04:25:05.031Z,11.00
2023-02-18T04:27:31.676Z,9.03
2023-02-18T04:29:58.549Z,9.23
2023-02-18T04:32:25.218Z,8.80
2023-02-18T04:34:52.047Z,8.53
2023-02-18T04:37:18.634Z,9.17
2023-02-18T04:39:45.570Z,8.67
2023-02-18T04:42:12.121Z,8.07
2023-02-18T04:44:38.924Z,7.73
2023-02-18T04:47:06.948Z,7.23
2023-02-18T04:49:34.013Z,7.17
2023-02-18T04:52:00.849Z,6.50
2023-02-18T04:54:27.474Z,6.27
2023-02-18T04:56:54.578Z,6.77
2023-02-18T04:59:21.623Z,5.93
2023-02-18T05:01:48.168Z,4.80
2023-02-18T05:04:15.106Z,4.33
2023-02-18T05:06:43.153Z,4.57
2023-02-18T05:09:10.261Z,3.47
2023-02-18T05:11:37.038Z,3.70
2023-02-18T05:14:03.796Z,3.03
2023-02-18T05:16:30.485Z,2.90
2023-02-18T05:18:57.030Z,2.50
2023-02-18T05:21:23.584Z,2.80
2023-02-18T05:23:50.283Z,2.70
2023-02-18T05:26:17.231Z,2.60
2023-02-18T05:28:43.800Z,2.40
2023-02-18T05:31:10.518Z,2.43
2023-02-18T05:33:37.253Z,2.20
2023-02-18T05:36:04.066Z,2.50
2023-02-18T05:38:30.675Z,2.67
2023-02-18T05:40:57.216Z,2.60
2023-02-18T05:43:23.960Z,2.57
2023-02-18T05:45:50.497Z,2.57
2023-02-18T05:48:17.112Z,2.10
2023-02-18T05:50:43.638Z,2.60
2023-02-18T05:53:10.147Z,2.40
2023-02-18T05:55:39.300Z,2.90
2023-02-18T05:58:06.545Z,2.60
2023-02-18T06:00:33.125Z,2.70
2023-02-18T06:02:59.840Z,2.30
2023-02-18T06:05:26.455Z,2.37
2023-02-18T06:07:54.289Z,2.53
2023-02-18T06:10:22.298Z,2.50
2023-02-18T06:12:48.800Z,2.70
2023-02-18T06:15:15.848Z,2.00
2023-02-18T06:17:42.335Z,2.40
2023-02-18T06:20:09.308Z,2.60
2023-02-18T06:22:36.012Z,2.30
2023-02-18T06:25:02.595Z,2.30
2023-02-18T06:27:29.141Z,2.50
2023-02-18T06:29:55.697Z,2.80
2023-02-18T06:32:22.393Z,2.63
2023-02-18T06:34:48.966Z,2.97
2023-02-18T06:37:15.848Z,2.40
2023-02-18T06:39:42.377Z,3.00
2023-02-18T06:42:08.968Z,2.83
2023-02-18T06:44:37.925Z,2.90
2023-02-18T06:47:04.806Z,2.80
2023-02-18T06:49:31.442Z,2.80
2023-02-18T06:51:57.998Z,3.17
2023-02-18T06:54:25.818Z,2.60
2023-02-18T06:56:52.411Z,3.13
2023-02-18T06:59:30.985Z,2.97
2023-02-18T07:01:57.549Z,3.20
2023-02-18T07:04:24.350Z,2.70
2023-02-18T07:06:50.956Z,2.53
2023-02-18T07:09:17.451Z,2.50
2023-02-18T07:11:43.952Z,2.67
2023-02-18T07:14:10.490Z,2.50
2023-02-18T07:16:39.702Z,2.13
2023-02-18T07:19:06.336Z,2.50
2023-02-18T07:21:32.944Z,2.23
2023-02-18T07:23:59.574Z,2.30
2023-02-18T07:26:28.907Z,2.10
2023-02-18T07:28:58.149Z,2.30
2023-02-18T07:31:24.978Z,1.90
2023-02-18T07:33:51.583Z,1.90
2023-02-18T07:36:18.121Z,1.40
2023-02-18T07:38:45.308Z,1.70
2023-02-18T07:41:19.723Z,1.50
2023-02-18T07:43:46.525Z,1.63
2023-02-18T07:46:23.750Z,1.37
2023-02-18T07:48:50.699Z,1.20
2023-02-18T07:51:17.351Z,1.20
2023-02-18T07:53:45.570Z,2.80
2023-02-18T07:56:17.444Z,1.60
2023-02-18T07:58:44.500Z,1.17
2023-02-18T08:01:15.359Z,1.50
2023-02-18T08:03:43.005Z,1.57
2023-02-18T08:06:21.343Z,1.43
2023-02-18T08:08:50.027Z,1.80
2023-02-18T08:11:19.533Z,1.40
2023-02-18T08:13:47.662Z,1.63
2023-02-18T08:16:14.843Z,1.47
2023-02-18T08:18:41.507Z,1.50
2023-02-18T08:21:08.129Z,1.70
2023-02-18T08:23:34.851Z,1.60
2023-02-18T08:26:01.607Z,1.30
2023-02-18T08:28:28.925Z,1.70
2023-02-18T08:30:55.629Z,1.80
2023-02-18T08:33:23.574Z,1.80
2023-02-18T08:35:52.481Z,1.90
2023-02-18T08:38:19.494Z,2.00
2023-02-18T08:40:46.438Z,2.33
2023-02-18T08:43:14.025Z,2.20
2023-02-18T08:45:40.951Z,3.03
2023-02-18T08:48:16.043Z,2.67
2023-02-18T08:50:46.890Z,2.57
2023-02-18T08:53:13.424Z,2.70
2023-02-18T08:55:40.983Z,2.90
2023-02-18T08:58:07.528Z,2.80
2023-02-18T09:00:34.811Z,2.80
2023-02-18T09:03:02.187Z,2.70
2023-02-18T09:05:28.683Z,3.10
2023-02-18T09:07:55.347Z,3.00
2023-02-18T09:10:22.173Z,2.73
2023-02-18T09:12:51.240Z,2.43
2023-02-18T09:15:18.326Z,2.33
2023-02-18T09:17:44.894Z,2.63
2023-02-18T09:20:11.697Z,2.90
2023-02-18T09:22:38.220Z,2.23
2023-02-18T09:25:05.296Z,2.97
2023-02-18T09:27:31.917Z,2.73
2023-02-18T09:29:58.738Z,2.23
2023-02-18T09:32:34.460Z,4.63
2023-02-18T09:35:02.891Z,4.40
2023-02-18T09:37:29.535Z,3.00
2023-02-18T09:39:56.267Z,2.67
2023-02-18T09:42:31.226Z,3.00
2023-02-18T09:45:02.450Z,2.80
2023-02-18T09:47:39.289Z,3.00
2023-02-18T09:50:14.278Z,2.87
2023-02-18T09:52:40.941Z,2.40
2023-02-18T09:55:18.884Z,3.23
2023-02-18T09:57:49.354Z,2.70
2023-02-18T10:00:23.037Z,2.47
2023-02-18T10:03:22.109Z,2.83
2023-02-18T10:06:12.874Z,2.23
2023-02-18T10:08:48.529Z,3.57
2023-02-18T10:11:25.033Z,4.80
2023-02-18T10:13:53.874Z,2.60
2023-02-18T10:16:23.473Z,3.40
2023-02-18T10:18:55.834Z,2.93
2023-02-18T10:21:26.090Z,2.83
2023-02-18T10:24:11.344Z,2.80
2023-02-18T10:26:38.308Z,2.93
2023-02-18T10:29:13.747Z,3.10
2023-02-18T10:31:45.891Z,3.20
2023-02-18T10:34:43.555Z,3.10
2023-02-18T10:37:37.722Z,3.00
2023-02-18T10:40:22.668Z,3.73
2023-02-18T10:43:08.856Z,2.60
2023-02-18T10:45:47.524Z,2.60
2023-02-18T10:48:29.421Z,2.97
2023-02-18T10:50:56.573Z,3.00
2023-02-18T10:53:36.660Z,2.73
2023-02-18T10:56:03.965Z,3.17
2023-02-18T10:58:47.243Z,2.67
2023-02-18T11:01:16.607Z,3.20
2023-02-18T11:03:49.591Z,3.20
2023-02-18T11:06:17.898Z,3.00
2023-02-18T11:08:46.319Z,3.00
2023-02-18T11:11:25.787Z,2.93
2023-02-18T11:13:58.432Z,2.90
2023-02-18T11:16:40.590Z,3.43
2023-02-18T11:19:37.677Z,2.70
2023-02-18T11:22:15.410Z,3.37
2023-02-18T11:24:48.315Z,2.87
2023-02-18T11:27:24.147Z,3.17
2023-02-18T11:29:56.841Z,3.03
2023-02-18T11:32:28.935Z,3.10
2023-02-18T11:34:55.801Z,3.37
2023-02-18T11:37:26.093Z,2.60
2023-02-18T11:40:00.569Z,3.13
2023-02-18T11:42:27.813Z,3.10
2023-02-18T11:44:59.784Z,2.73
2023-02-18T11:47:37.618Z,2.80
2023-02-18T11:50:04.110Z,3.30
2023-02-18T11:52:37.520Z,3.00
2023-02-18T11:55:04.629Z,3.00
2023-02-18T11:57:33.864Z,2.97
2023-02-18T12:00:01.014Z,2.80
2023-02-18T12:02:36.382Z,2.50
2023-02-18T12:05:16.435Z,3.20
2023-02-18T12:07:53.051Z,2.60
2023-02-18T12:10:27.557Z,2.80
2023-02-18T12:13:09.070Z,2.80
2023-02-18T12:15:50.701Z,3.17
2023-02-18T12:18:39.555Z,2.80
2023-02-18T12:21:45.292Z,2.67
2023-02-18T12:24:35.070Z,2.93
2023-02-18T12:27:17.246Z,2.57
2023-02-18T12:30:00.644Z,2.87
2023-02-18T12:32:37.774Z,3.00
2023-02-18T12:35:29.873Z,3.20
2023-02-18T12:38:09.397Z,2.80
2023-02-18T12:40:44.979Z,2.87
2023-02-18T12:43:37.765Z,3.00
2023-02-18T12:46:37.676Z,3.10
2023-02-18T12:49:27.901Z,3.00
2023-02-18T12:51:54.415Z,3.20
2023-02-18T12:54:51.589Z,3.40
2023-02-18T12:57:33.525Z,2.97
2023-02-18T13:00:25.057Z,4.00
2023-02-18T13:03:28.324Z,3.53
2023-02-18T13:06:23.000Z,3.17
2023-02-18T13:09:15.783Z,3.73
2023-02-18T13:12:04.329Z,3.30
2023-02-18T13:14:36.404Z,3.50
2023-02-18T13:17:08.767Z,3.13
2023-02-18T13:19:55.830Z,4.07
2023-02-18T13:22:25.593Z,3.83
2023-02-18T13:24:55.150Z,4.13
2023-02-18T13:27:37.143Z,4.23
2023-02-18T13:30:19.141Z,4.10
2023-02-18T13:33:14.273Z,4.70
2023-02-18T13:35:50.304Z,4.83
2023-02-18T13:38:47.897Z,4.80
2023-02-18T13:41:14.587Z,5.60
2023-02-18T13:43:41.121Z,5.63
2023-02-18T13:46:14.740Z,5.93
2023-02-18T13:49:13.065Z,5.73
2023-02-18T13:51:44.398Z,6.70
2023-02-18T13:54:17.513Z,7.60
2023-02-18T13:56:51.019Z,7.70
2023-02-18T13:59:22.639Z,8.30
2023-02-18T14:01:51.991Z,7.90
2023-02-18T14:04:41.520Z,7.97
2023-02-18T14:07:26.561Z,7.50
2023-02-18T14:09:58.309Z,7.57
2023-02-18T14:12:30.792Z,8.60
2023-02-18T14:14:58.603Z,8.67
2023-02-18T14:17:32.953Z,8.10
2023-02-18T14:20:02.277Z,8.60
2023-02-18T14:22:44.579Z,9.00
2023-02-18T14:25:14.047Z,8.50
2023-02-18T14:27:41.598Z,8.23
2023-02-18T14:30:19.714Z,9.20
2023-02-18T14:32:46.725Z,8.53
2023-02-18T14:35:48.622Z,9.07
2023-02-18T14:38:59.893Z,9.47
2023-02-18T14:41:29.007Z,9.73
2023-02-18T14:44:31.586Z,10.30
2023-02-18T14:47:16.127Z,10.47
2023-02-18T14:49:52.670Z,9.60
2023-02-18T14:52:38.538Z,9.87
2023-02-18T14:55:07.958Z,9.53
2023-02-18T14:57:48.575Z,9.63
2023-02-18T15:00:25.187Z,9.30
2023-02-18T15:02:55.185Z,10.43
2023-02-18T15:05:28.224Z,10.37
2023-02-18T15:08:09.305Z,10.63
2023-02-18T15:10:58.660Z,9.70
2023-02-18T15:13:34.074Z,9.73
2023-02-18T15:16:05.457Z,10.37
2023-02-18T15:18:36.513Z,9.50
2023-02-18T15:21:05.357Z,9.33
2023-02-18T15:23:35.890Z,9.83
2023-02-18T15:26:06.301Z,8.83
2023-02-18T15:28:34.251Z,9.07
2023-02-18T15:31:04.053Z,8.87
2023-02-18T15:33:30.603Z,9.23
2023-02-18T15:36:02.312Z,8.80
2023-02-18T15:38:29.378Z,9.23
2023-02-18T15:40:56.505Z,9.93
2023-02-18T15:43:27.287Z,9.03
2023-02-18T15:45:57.752Z,9.57
2023-02-18T15:48:38.945Z,9.77
2023-02-18T15:51:17.208Z,9.70
2023-02-18T15:53:47.952Z,9.70
2023-02-18T15:56:21.473Z,8.97
2023-02-18T15:58:48.047Z,9.33
2023-02-18T16:01:29.500Z,9.87
2023-02-18T16:03:59.618Z,9.43
2023-02-18T16:06:30.769Z,9.60
2023-02-18T16:09:04.557Z,9.53
2023-02-18T16:11:40.591Z,9.40
2023-02-18T16:14:07.378Z,9.90
2023-02-18T16:16:37.413Z,11.03
2023-02-18T16:19:04.709Z,12.50
2023-02-18T16:21:40.344Z,9.87
2023-02-18T16:24:31.544Z,9.87
2023-02-18T16:26:59.001Z,9.03
2023-02-18T16:30:02.428Z,8.63
2023-02-18T16:32:28.958Z,9.13
2023-02-18T16:34:55.710Z,8.80
2023-02-18T16:37:40.520Z,8.30
2023-02-18T16:40:27.442Z,8.87
2023-02-18T16:43:00.686Z,8.47
2023-02-18T16:45:39.757Z,8.13
2023-02-18T16:48:09.742Z,8.13
2023-02-18T16:50:39.508Z,7.97
2023-02-18T16:53:14.721Z,7.97
2023-02-18T16:55:41.520Z,8.70
2023-02-18T16:58:08.205Z,8.10
2023-02-18T17:00:34.895Z,8.77
2023-02-18T17:03:04.722Z,8.33
2023-02-18T17:05:36.699Z,8.83
2023-02-18T17:08:26.799Z,9.07
2023-02-18T17:10:56.153Z,8.70
2023-02-18T17:13:25.032Z,8.23
2023-02-18T17:15:54.137Z,8.30
2023-02-18T17:18:33.015Z,8.60
2023-02-18T17:21:03.557Z,8.40
2023-02-18T17:23:30.123Z,8.33
2023-02-18T17:25:56.785Z,8.57
2023-02-18T17:28:26.274Z,9.50
2023-02-18T17:30:57.069Z,9.33
2023-02-18T17:33:25.231Z,8.70
2023-02-18T17:35:51.810Z,8.63
2023-02-18T17:38:19.583Z,9.37
2023-02-18T17:40:46.888Z,8.43
2023-02-18T17:43:15.794Z,8.87
2023-02-18T17:45:48.799Z,8.50
2023-02-18T17:48:15.562Z,8.50
2023-02-18T17:50:42.742Z,8.60
2023-02-18T17:53:11.724Z,8.60
2023-02-18T17:55:38.806Z,8.60
2023-02-18T17:58:05.348Z,8.30
2023-02-18T18:00:53.786Z,8.57
2023-02-18T18:03:23.691Z,8.10
2023-02-18T18:05:56.450Z,8.27
2023-02-18T18:08:36.879Z,7.10
2023-02-18T18:11:03.734Z,7.33
2023-02-18T18:13:34.373Z,6.83
2023-02-18T18:16:01.323Z,6.50
2023-02-18T18:18:27.869Z,7.13
2023-02-18T18:21:00.238Z,7.90
2023-02-18T18:23:30.050Z,7.80
2023-02-18T18:25:58.743Z,7.17
2023-02-18T18:28:26.886Z,7.53
2023-02-18T18:30:55.702Z,7.53
2023-02-18T18:33:28.761Z,7.50
2023-02-18T18:35:59.684Z,8.13
2023-02-18T18:38:28.142Z,7.50
2023-02-18T18:40:55.336Z,7.13
2023-02-18T18:43:29.657Z,6.93
2023-02-18T18:45:57.468Z,8.00
2023-02-18T18:48:24.825Z,7.90
2023-02-18T18:50:53.278Z,8.30
2023-02-18T18:53:22.981Z,7.83
2023-02-18T18:55:51.524Z,8.83
2023-02-18T18:58:20.956Z,8.30
2023-02-18T19:00:52.656Z,8.67
2023-02-18T19:03:21.094Z,8.53
2023-02-18T19:05:48.834Z,10.33
2023-02-18T19:08:20.154Z,10.00
2023-02-18T19:10:50.212Z,9.77
2023-02-18T19:13:20.130Z,9.77
2023-02-18T19:15:47.743Z,9.90
2023-02-18T19:18:18.017Z,11.80
2023-02-18T19:20:45.590Z,10.87
2023-02-18T19:23:12.203Z,10.27
2023-02-18T19:25:40.167Z,10.87
2023-02-18T19:28:07.665Z,11.30
2023-02-18T19:30:36.785Z,10.37
2023-02-18T19:33:05.851Z,10.23
2023-02-18T19:35:33.026Z,10.23
2023-02-18T19:38:00.144Z,9.40
2023-02-18T19:40:29.781Z,12.50
2023-02-18T19:42:57.107Z,12.73
2023-02-18T19:45:23.795Z,11.63
2023-02-18T19:48:00.391Z,10.90
2023-02-18T19:50:30.953Z,9.50
2023-02-18T19:52:58.788Z,10.27
2023-02-18T19:55:25.305Z,10.77
2023-02-18T19:57:51.951Z,11.03
2023-02-18T20:00:25.277Z,10.53
2023-02-18T20:02:51.871Z,10.73
2023-02-18T20:05:19.307Z,10.57
2023-02-18T20:07:48.684Z,9.53
2023-02-18T20:10:20.070Z,10.23
2023-02-18T20:12:52.135Z,10.27
2023-02-18T20:15:18.916Z,9.73
2023-02-18T20:17:45.761Z,10.27
2023-02-18T20:20:12.602Z,9.87
2023-02-18T20:22:39.126Z,10.20
2023-02-18T20:25:06.019Z,9.87
2023-02-18T20:27:33.576Z,10.10
2023-02-18T20:30:00.474Z,10.40
2023-02-18T20:32:27.128Z,10.40
2023-02-18T20:34:53.877Z,10.43
2023-02-18T20:37:20.388Z,10.67
2023-02-18T20:39:46.894Z,12.00
2023-02-18T20:42:16.742Z,10.37
2023-02-18T20:44:44.606Z,10.73
2023-02-18T20:47:13.650Z,10.53
2023-02-18T20:49:40.811Z,10.67
2023-02-18T20:52:08.489Z,10.13
2023-02-18T20:54:35.166Z,10.47
2023-02-18T20:57:02.946Z,10.80
2023-02-18T20:59:29.916Z,10.20
2023-02-18T21:01:57.239Z,10.10
2023-02-18T21:04:23.785Z,10.47
2023-02-18T21:06:50.869Z,10.77
2023-02-18T21:09:17.868Z,10.07
2023-02-18T21:11:46.757Z,10.60
2023-02-18T21:14:13.298Z,11.70
2023-02-18T21:16:39.995Z,10.87
2023-02-18T21:19:08.616Z,11.67
2023-02-18T21:21:36.058Z,12.60
2023-02-18T21:24:02.905Z,11.50
2023-02-18T21:26:30.075Z,11.23
2023-02-18T21:28:59.619Z,11.30
2023-02-18T21:31:32.390Z,12.30
2023-02-18T21:34:04.656Z,11.50
2023-02-18T21:36:32.262Z,11.80
2023-02-18T21:39:01.347Z,12.17
2023-02-18T21:41:30.905Z,12.53
2023-02-18T21:43:57.705Z,12.07
2023-02-18T21:46:29.659Z,12.27
2023-02-18T21:49:03.030Z,12.03
2023-02-18T21:51:50.262Z,11.40
2023-02-18T21:54:52.834Z,11.77
2023-02-18T21:57:22.134Z,12.33
2023-02-18T21:59:48.969Z,11.97
2023-02-18T22:02:21.904Z,10.77
2023-02-18T22:04:50.259Z,10.87
2023-02-18T22:07:18.129Z,11.40
2023-02-18T22:09:48.291Z,11.97
2023-02-18T22:12:15.995Z,12.33
2023-02-18T22:14:44.110Z,12.07
2023-02-18T22:17:11.306Z,12.60
2023-02-18T22:19:37.984Z,12.67
2023-02-18T22:22:04.720Z,13.03
2023-02-18T22:24:31.965Z,13.27
2023-02-18T22:27:01.523Z,12.80
2023-02-18T22:29:30.147Z,12.23
2023-02-18T22:31:56.829Z,12.63
2023-02-18T22:34:24.298Z,12.00
2023-02-18T22:36:51.006Z,10.77
2023-02-18T22:39:17.935Z,11.53
2023-02-18T22:41:44.780Z,11.20
2023-02-18T22:44:14.338Z,11.17
2023-02-18T22:46:41.056Z,10.73
2023-02-18T22:49:08.275Z,10.93
2023-02-18T22:51:40.314Z,10.33
2023-02-18T22:54:11.757Z,9.53
2023-02-18T22:56:38.395Z,9.90
2023-02-18T22:59:05.039Z,9.83
2023-02-18T23:01:35.809Z,10.07
2023-02-18T23:04:13.887Z,9.83
2023-02-18T23:06:46.169Z,10.00
2023-02-18T23:09:25.055Z,10.60
2023-02-18T23:11:57.556Z,10.40
2023-02-18T23:14:28.319Z,10.60
2023-02-18T23:17:16.053Z,10.23
2023-02-18T23:19:53.999Z,10.80
2023-02-18T23:22:32.256Z,10.67
2023-02-18T23:25:00.491Z,10.70
2023-02-18T23:27:27.844Z,10.57
2023-02-18T23:29:57.408Z,10.57
2023-02-18T23:32:24.413Z,11.17
2023-02-18T23:34:51.762Z,11.33
2023-02-18T23:37:18.789Z,11.40
2023-02-18T23:39:47.368Z,11.67
2023-02-18T23:42:14.652Z,11.03
2023-02-18T23:44:41.131Z,12.10
2023-02-18T23:47:08.968Z,11.83
2023-02-18T23:49:35.455Z,11.90
2023-02-18T23:52:01.961Z,12.67
2023-02-18T23:54:28.793Z,12.60
2023-02-18T23:56:57.735Z,11.60
2023-02-18T23:59:24.234Z,11.20
